createdAt,value
2019-03-25T00:00:34.580Z,4.56
2019-03-25T00:05:34.528Z,4.44
2019-03-25T00:10:34.559Z,4.38
2019-03-25T00:15:34.542Z,4.31
2019-03-25T00:20:34.539Z,4.31
2019-03-25T00:25:34.557Z,4.19
2019-03-25T00:30:34.552Z,4.13
2019-03-25T00:35:34.542Z,4
2019-03-25T00:40:34.536Z,3.94
2019-03-25T00:45:34.550Z,3.94
2019-03-25T00:50:34.553Z,3.88
2019-03-25T00:55:34.537Z,3.94
2019-03-25T01:00:34.555Z,3.88
2019-03-25T01:05:34.550Z,3.88
2019-03-25T01:10:34.558Z,3.88
2019-03-25T01:15:34.567Z,3.88
2019-03-25T01:20:34.567Z,3.81
2019-03-25T01:25:34.565Z,3.75
2019-03-25T01:30:34.572Z,3.75
2019-03-25T01:35:34.577Z,3.69
2019-03-25T01:40:34.577Z,3.69
2019-03-25T01:45:34.578Z,3.75
2019-03-25T01:50:34.576Z,3.69
2019-03-25T01:55:34.587Z,3.69
2019-03-25T02:00:34.598Z,3.69
2019-03-25T02:05:34.597Z,3.69
2019-03-25T02:10:34.570Z,3.69
2019-03-25T02:15:34.582Z,3.69
2019-03-25T02:20:34.582Z,3.69
2019-03-25T02:25:34.593Z,3.69
2019-03-25T02:30:34.599Z,3.69
2019-03-25T02:35:34.587Z,3.69
2019-03-25T02:40:34.601Z,3.69
2019-03-25T02:45:34.615Z,3.56
2019-03-25T02:50:34.647Z,3.5
2019-03-25T02:55:41.113Z,3.44
2019-03-25T03:00:34.616Z,3.44
2019-03-25T03:05:34.644Z,3.38
2019-03-25T03:10:34.645Z,3.38
2019-03-25T03:15:34.627Z,3.38
2019-03-25T03:20:34.647Z,3.44
2019-03-25T03:25:34.630Z,3.5
2019-03-25T03:30:34.669Z,3.56
2019-03-25T03:35:34.633Z,3.63
2019-03-25T03:40:34.647Z,3.75
2019-03-25T03:45:34.627Z,3.94
2019-03-25T03:50:34.632Z,3.88
2019-03-25T03:55:34.641Z,3.81
2019-03-25T04:00:34.641Z,3.69
2019-03-25T04:05:34.749Z,3.56
2019-03-25T04:10:34.643Z,3.56
2019-03-25T04:15:34.647Z,3.63
2019-03-25T04:20:34.674Z,3.75
2019-03-25T04:25:34.658Z,3.69
2019-03-25T04:30:34.659Z,3.69
2019-03-25T04:35:34.684Z,3.56
2019-03-25T04:40:34.656Z,3.44
2019-03-25T04:45:34.658Z,3.38
2019-03-25T04:50:34.664Z,3.31
2019-03-25T04:55:34.675Z,3.31
2019-03-25T05:00:34.672Z,3.31
2019-03-25T05:05:36.014Z,3.25
2019-03-25T05:10:34.667Z,3.25
2019-03-25T05:15:34.680Z,3.31
2019-03-25T05:20:34.685Z,3.38
2019-03-25T05:25:34.683Z,3.5
2019-03-25T05:30:34.685Z,3.81
2019-03-25T05:35:34.699Z,4.19
2019-03-25T05:40:34.690Z,4.06
2019-03-25T05:45:34.694Z,3.81
2019-03-25T05:50:34.726Z,3.75
2019-03-25T05:55:34.685Z,3.81
2019-03-25T06:00:34.698Z,3.81
2019-03-25T06:05:34.686Z,3.88
2019-03-25T06:10:34.705Z,3.88
2019-03-25T06:15:34.707Z,3.81
2019-03-25T06:20:34.715Z,3.81
2019-03-25T06:25:34.902Z,3.94
2019-03-25T06:30:34.707Z,4
2019-03-25T06:35:34.699Z,4
2019-03-25T06:40:34.716Z,4
2019-03-25T06:45:34.712Z,3.94
2019-03-25T06:50:34.702Z,4
2019-03-25T06:55:34.723Z,4
2019-03-25T07:00:34.711Z,4
2019-03-25T07:05:34.733Z,4
2019-03-25T07:10:34.739Z,4
2019-03-25T07:15:34.732Z,4.06
2019-03-25T07:20:34.727Z,4.13
2019-03-25T07:25:34.734Z,4.06
2019-03-25T07:30:34.741Z,4
2019-03-25T07:35:34.730Z,4
2019-03-25T07:40:34.730Z,3.94
2019-03-25T07:45:34.743Z,3.94
2019-03-25T07:50:34.731Z,4
2019-03-25T07:55:34.750Z,4.13
2019-03-25T08:00:34.789Z,4.19
2019-03-25T08:05:34.808Z,4.44
2019-03-25T08:10:34.801Z,4.5
2019-03-25T08:15:34.788Z,4.75
2019-03-25T08:20:34.754Z,4.94
2019-03-25T08:25:34.789Z,5.5
2019-03-25T08:30:34.766Z,5.81
2019-03-25T08:35:34.776Z,6
2019-03-25T08:40:34.773Z,6.19
2019-03-25T08:45:34.766Z,6.63
2019-03-25T08:50:34.777Z,6.31
2019-03-25T08:55:34.782Z,6
2019-03-25T09:00:34.770Z,6
2019-03-25T09:05:34.798Z,6.38
2019-03-25T09:10:34.774Z,7.19
2019-03-25T09:15:34.791Z,6.81
2019-03-25T09:20:34.786Z,6.25
2019-03-25T09:25:34.778Z,6.06
2019-03-25T09:30:34.784Z,6.5
2019-03-25T09:35:34.810Z,6.94
2019-03-25T09:40:34.798Z,6.81
2019-03-25T09:45:34.798Z,6.63
2019-03-25T09:50:34.811Z,6.75
2019-03-25T09:55:34.804Z,6.69
2019-03-25T10:00:34.798Z,6.44
2019-03-25T10:05:34.806Z,6.63
2019-03-25T10:10:34.808Z,7.06
2019-03-25T10:15:34.833Z,7.06
2019-03-25T10:20:34.870Z,7.63
2019-03-25T10:25:34.807Z,9
2019-03-25T10:30:34.816Z,9.19
2019-03-25T10:35:34.811Z,9.5
2019-03-25T10:40:34.857Z,9.25
2019-03-25T10:45:34.821Z,8.13
2019-03-25T10:50:34.828Z,7.88
2019-03-25T10:55:34.841Z,7.69
2019-03-25T11:00:34.832Z,7.5
2019-03-25T11:05:34.825Z,8.38
2019-03-25T11:10:34.849Z,8.25
2019-03-25T11:15:34.851Z,8.06
2019-03-25T11:20:34.831Z,8
2019-03-25T11:25:34.851Z,7.69
2019-03-25T11:30:34.866Z,7.63
2019-03-25T11:35:34.867Z,7.38
2019-03-25T11:40:34.844Z,7.56
2019-03-25T11:45:34.864Z,8.25
2019-03-25T11:50:34.849Z,8
2019-03-25T11:55:34.860Z,8.06
2019-03-25T12:00:34.864Z,7.75
2019-03-25T12:05:34.891Z,7.56
2019-03-25T12:10:34.875Z,7.31
2019-03-25T12:15:34.876Z,7.06
2019-03-25T12:20:34.858Z,6.81
2019-03-25T12:25:34.879Z,7
2019-03-25T12:30:34.878Z,7.06
2019-03-25T12:35:34.865Z,6.94
2019-03-25T12:40:34.884Z,6.81
2019-03-25T12:45:34.885Z,6.81
2019-03-25T12:50:34.888Z,6.81
2019-03-25T12:55:34.885Z,6.56
2019-03-25T13:00:34.993Z,5.94
2019-03-25T13:05:34.885Z,4.75
2019-03-25T13:10:34.896Z,4.38
2019-03-25T13:15:34.911Z,4.13
2019-03-25T13:20:34.906Z,4.06
2019-03-25T13:25:34.899Z,4.44
2019-03-25T13:30:34.914Z,4.44
2019-03-25T13:35:34.895Z,4.44
2019-03-25T13:40:34.914Z,4.44
2019-03-25T13:45:34.915Z,4.44
2019-03-25T13:50:34.927Z,4.56
2019-03-25T13:55:34.925Z,4.81
2019-03-25T14:00:34.932Z,5.06
2019-03-25T14:05:34.928Z,6
2019-03-25T14:10:34.929Z,6.44
2019-03-25T14:15:34.935Z,6.69
2019-03-25T14:20:34.945Z,6.63
2019-03-25T14:25:34.917Z,6.81
2019-03-25T14:30:34.929Z,6.81
2019-03-25T14:35:34.941Z,6.5
2019-03-25T14:40:34.924Z,6.25
2019-03-25T14:45:34.948Z,5.88
2019-03-25T14:50:34.943Z,5.63
2019-03-25T14:55:34.937Z,5.38
2019-03-25T15:00:34.949Z,5.25
2019-03-25T15:05:34.965Z,5.19
2019-03-25T15:10:35.072Z,5.19
2019-03-25T15:15:34.954Z,5.31
2019-03-25T15:20:34.957Z,5.38
2019-03-25T15:25:34.989Z,5.44
2019-03-25T15:30:36.083Z,5.5
2019-03-25T15:35:34.960Z,5.38
2019-03-25T15:40:35.041Z,5.38
2019-03-25T15:45:34.981Z,5.63
2019-03-25T15:50:34.974Z,5.56
2019-03-25T15:55:34.965Z,5.25
2019-03-25T16:00:34.973Z,4.88
2019-03-25T16:05:34.967Z,4.38
2019-03-25T16:10:35.002Z,4.38
2019-03-25T16:15:34.985Z,4.44
2019-03-25T16:20:34.978Z,4.5
2019-03-25T16:25:34.978Z,4.69
2019-03-25T16:30:34.995Z,4.75
2019-03-25T16:35:34.987Z,4.81
2019-03-25T16:40:35.002Z,4.88
2019-03-25T16:45:35.003Z,4.94
2019-03-25T16:50:34.997Z,4.94
2019-03-25T16:55:35.008Z,5
2019-03-25T17:00:35.020Z,4.88
2019-03-25T17:05:34.999Z,4.81
2019-03-25T17:10:35.018Z,4.69
2019-03-25T17:15:35.005Z,4.69
2019-03-25T17:20:35.010Z,4.63
2019-03-25T17:25:35.076Z,4.5
2019-03-25T17:30:35.014Z,4.44
2019-03-25T17:35:35.024Z,4.38
2019-03-25T17:40:35.120Z,4.25
2019-03-25T17:45:35.030Z,4.13
2019-03-25T17:50:35.024Z,4
2019-03-25T17:55:35.080Z,3.88
2019-03-25T18:00:35.048Z,3.81
2019-03-25T18:05:35.053Z,3.75
2019-03-25T18:10:35.056Z,3.75
2019-03-25T18:15:35.038Z,3.75
2019-03-25T18:20:35.036Z,3.81
2019-03-25T18:25:35.053Z,3.81
2019-03-25T18:30:35.046Z,3.81
2019-03-25T18:35:35.045Z,3.94
2019-03-25T18:40:35.091Z,4.06
2019-03-25T18:45:35.047Z,4.19
2019-03-25T18:50:35.056Z,4.19
2019-03-25T18:55:35.065Z,4.13
2019-03-25T19:00:35.071Z,4
2019-03-25T19:05:35.076Z,3.81
2019-03-25T19:10:35.052Z,3.75
2019-03-25T19:15:35.068Z,3.75
2019-03-25T19:20:35.094Z,3.81
2019-03-25T19:25:35.084Z,3.88
2019-03-25T19:30:35.073Z,3.75
2019-03-25T19:35:35.084Z,3.63
2019-03-25T19:40:35.104Z,3.5
2019-03-25T19:45:35.096Z,3.38
2019-03-25T19:50:35.082Z,3.31
2019-03-25T19:55:35.127Z,3.31
2019-03-25T20:00:35.132Z,3.38
2019-03-25T20:05:35.088Z,3.63
2019-03-25T20:10:35.167Z,3.69
2019-03-25T20:15:45.259Z,3.69
2019-03-25T20:20:35.098Z,3.69
2019-03-25T20:25:35.158Z,3.75
2019-03-25T20:30:35.112Z,3.81
2019-03-25T20:35:35.137Z,3.81
2019-03-25T20:40:35.212Z,3.81
2019-03-25T20:45:35.119Z,3.81
2019-03-25T20:50:35.165Z,3.75
2019-03-25T20:55:35.120Z,3.75
2019-03-25T21:00:35.162Z,3.75
2019-03-25T21:05:35.177Z,3.88
2019-03-25T21:10:35.113Z,3.88
2019-03-25T21:15:35.150Z,3.88
2019-03-25T21:20:35.124Z,3.88
2019-03-25T21:25:35.194Z,3.88
2019-03-25T21:30:47.253Z,3.88
2019-03-25T21:35:35.160Z,3.88
2019-03-25T21:40:35.141Z,3.88
2019-03-25T21:45:35.144Z,3.94
2019-03-25T21:50:35.147Z,3.94
2019-03-25T21:55:35.182Z,4
2019-03-25T22:00:35.181Z,4
2019-03-25T22:05:35.147Z,4
2019-03-25T22:10:35.171Z,4
2019-03-25T22:15:35.146Z,3.94
2019-03-25T22:20:35.156Z,3.88
2019-03-25T22:25:35.162Z,3.81
2019-03-25T22:30:35.156Z,3.81
2019-03-25T22:35:35.161Z,3.88
2019-03-25T22:40:35.144Z,3.88
2019-03-25T22:45:35.165Z,3.75
2019-03-25T22:50:35.158Z,3.69
2019-03-25T22:55:35.192Z,3.69
2019-03-25T23:00:35.280Z,3.75
2019-03-25T23:05:35.163Z,3.81
2019-03-25T23:10:35.172Z,3.94
2019-03-25T23:15:35.176Z,4
2019-03-25T23:20:35.177Z,4.06
2019-03-25T23:25:35.178Z,4.19
2019-03-25T23:30:35.177Z,4.19
2019-03-25T23:35:35.190Z,4.13
2019-03-25T23:40:35.206Z,4.06
2019-03-25T23:45:35.187Z,3.88
2019-03-25T23:50:35.192Z,3.75
2019-03-25T23:55:35.190Z,3.63
